Terminal Aerodrome Forecast
Issued by NWS

Home | Current Version | Previous Version | Text Only | Print | Product List | Glossary On
Versions: 1 2 3 4 5 6 7 8 9 10 11 12 13 14 15 16 17 18 19 20
060
FTUS43 KGRB 280520
TAFCWA
TAF
KCWA 280520Z 2806/2906 30006KT P6SM VCSH SCT006 OVC012
      TEMPO 2806/2810 6SM BR BKN006
     FM281000 34007KT P6SM BKN008 OVC015
     FM281400 02009KT P6SM OVC015
     FM281600 03011G17KT P6SM BKN025
     FM282200 02007KT P6SM BKN035
     FM290000 02005KT P6SM SKC
      AMD LTD TO CLD VIS AND WIND TIL 281100=

USA.gov is the U.S. government's official web portal to all federal, state and local government web resources and services.